sensor_id;sensor_type;location;lat;lon;timestamp;P1;durP1;ratioP1;P2;durP2;ratioP2
27187;SDS011;14708;50.872;5.306;2023-01-13T00:00:43;1.85;;;1.00;;
27187;SDS011;14708;50.872;5.306;2023-01-13T00:03:09;1.85;;;1.10;;
27187;SDS011;14708;50.872;5.306;2023-01-13T00:05:35;3.33;;;1.45;;
27187;SDS011;14708;50.872;5.306;2023-01-13T00:08:02;2.72;;;1.27;;
27187;SDS011;14708;50.872;5.306;2023-01-13T00:10:38;2.00;;;1.10;;
27187;SDS011;14708;50.872;5.306;2023-01-13T00:13:04;2.55;;;1.17;;
27187;SDS011;14708;50.872;5.306;2023-01-13T00:15:30;2.20;;;1.35;;
27187;SDS011;14708;50.872;5.306;2023-01-13T00:17:57;2.42;;;1.25;;
27187;SDS011;14708;50.872;5.306;2023-01-13T00:20:23;2.45;;;1.13;;
27187;SDS011;14708;50.872;5.306;2023-01-13T00:22:48;2.33;;;0.95;;
27187;SDS011;14708;50.872;5.306;2023-01-13T00:25:14;3.40;;;1.27;;
27187;SDS011;14708;50.872;5.306;2023-01-13T00:27:40;2.03;;;1.10;;
27187;SDS011;14708;50.872;5.306;2023-01-13T00:30:06;1.63;;;0.93;;
27187;SDS011;14708;50.872;5.306;2023-01-13T00:32:32;2.22;;;1.10;;
27187;SDS011;14708;50.872;5.306;2023-01-13T00:34:58;1.73;;;1.05;;
27187;SDS011;14708;50.872;5.306;2023-01-13T00:37:24;2.10;;;1.25;;
27187;SDS011;14708;50.872;5.306;2023-01-13T00:39:50;1.90;;;1.20;;
27187;SDS011;14708;50.872;5.306;2023-01-13T00:42:16;2.38;;;1.10;;
27187;SDS011;14708;50.872;5.306;2023-01-13T00:45:10;3.10;;;1.00;;
27187;SDS011;14708;50.872;5.306;2023-01-13T00:47:35;1.95;;;1.20;;
27187;SDS011;14708;50.872;5.306;2023-01-13T00:50:01;2.03;;;1.13;;
27187;SDS011;14708;50.872;5.306;2023-01-13T00:52:27;2.03;;;1.13;;
27187;SDS011;14708;50.872;5.306;2023-01-13T00:54:52;2.03;;;1.20;;
27187;SDS011;14708;50.872;5.306;2023-01-13T00:57:18;1.65;;;1.02;;
27187;SDS011;14708;50.872;5.306;2023-01-13T00:59:44;1.92;;;1.02;;
27187;SDS011;14708;50.872;5.306;2023-01-13T01:02:09;1.80;;;0.98;;
27187;SDS011;14708;50.872;5.306;2023-01-13T01:04:35;2.50;;;0.98;;
27187;SDS011;14708;50.872;5.306;2023-01-13T01:07:01;2.03;;;1.05;;
27187;SDS011;14708;50.872;5.306;2023-01-13T01:09:26;3.00;;;1.30;;
27187;SDS011;14708;50.872;5.306;2023-01-13T01:11:57;1.20;;;0.90;;
27187;SDS011;14708;50.872;5.306;2023-01-13T01:14:26;1.58;;;1.05;;
27187;SDS011;14708;50.872;5.306;2023-01-13T01:16:52;1.92;;;1.17;;
27187;SDS011;14708;50.872;5.306;2023-01-13T01:19:18;1.42;;;1.02;;
27187;SDS011;14708;50.872;5.306;2023-01-13T01:21:44;2.22;;;1.10;;
27187;SDS011;14708;50.872;5.306;2023-01-13T01:24:19;1.70;;;0.93;;
27187;SDS011;14708;50.872;5.306;2023-01-13T01:26:44;2.00;;;1.00;;
27187;SDS011;14708;50.872;5.306;2023-01-13T01:29:11;1.52;;;0.95;;
27187;SDS011;14708;50.872;5.306;2023-01-13T01:31:39;1.73;;;1.13;;
27187;SDS011;14708;50.872;5.306;2023-01-13T01:34:04;3.53;;;1.10;;
27187;SDS011;14708;50.872;5.306;2023-01-13T01:36:30;1.83;;;0.90;;
27187;SDS011;14708;50.872;5.306;2023-01-13T01:38:57;1.38;;;0.90;;
27187;SDS011;14708;50.872;5.306;2023-01-13T01:41:25;1.55;;;0.95;;
27187;SDS011;14708;50.872;5.306;2023-01-13T01:43:54;2.33;;;0.80;;
27187;SDS011;14708;50.872;5.306;2023-01-13T01:46:38;2.30;;;1.10;;
27187;SDS011;14708;50.872;5.306;2023-01-13T01:49:25;2.28;;;1.23;;
27187;SDS011;14708;50.872;5.306;2023-01-13T01:51:56;1.77;;;1.10;;
27187;SDS011;14708;50.872;5.306;2023-01-13T01:54:30;1.45;;;1.00;;
27187;SDS011;14708;50.872;5.306;2023-01-13T01:57:01;2.45;;;1.05;;
27187;SDS011;14708;50.872;5.306;2023-01-13T01:59:27;2.35;;;1.00;;
27187;SDS011;14708;50.872;5.306;2023-01-13T02:01:56;0.90;;;0.77;;
27187;SDS011;14708;50.872;5.306;2023-01-13T02:04:27;1.90;;;1.05;;
27187;SDS011;14708;50.872;5.306;2023-01-13T02:07:18;1.73;;;1.00;;
27187;SDS011;14708;50.872;5.306;2023-01-13T02:09:47;1.85;;;1.10;;
27187;SDS011;14708;50.872;5.306;2023-01-13T02:12:14;1.33;;;1.00;;
27187;SDS011;14708;50.872;5.306;2023-01-13T02:26:27;1.55;;;1.20;;
27187;SDS011;14708;50.872;5.306;2023-01-13T02:32:25;2.05;;;1.10;;
27187;SDS011;14708;50.872;5.306;2023-01-13T02:35:11;1.50;;;0.77;;
27187;SDS011;14708;50.872;5.306;2023-01-13T02:37:45;2.10;;;0.90;;
27187;SDS011;14708;50.872;5.306;2023-01-13T02:40:39;2.42;;;1.30;;
27187;SDS011;14708;50.872;5.306;2023-01-13T02:43:28;1.70;;;0.80;;
27187;SDS011;14708;50.872;5.306;2023-01-13T02:46:22;2.03;;;1.08;;
27187;SDS011;14708;50.872;5.306;2023-01-13T02:48:53;1.70;;;1.05;;
27187;SDS011;14708;50.872;5.306;2023-01-13T02:51:22;1.20;;;1.00;;
27187;SDS011;14708;50.872;5.306;2023-01-13T02:53:52;1.63;;;0.75;;
27187;SDS011;14708;50.872;5.306;2023-01-13T02:56:25;2.10;;;1.10;;
27187;SDS011;14708;50.872;5.306;2023-01-13T02:58:52;1.52;;;1.00;;
27187;SDS011;14708;50.872;5.306;2023-01-13T03:01:20;0.90;;;0.80;;
27187;SDS011;14708;50.872;5.306;2023-01-13T03:03:46;2.05;;;0.90;;
27187;SDS011;14708;50.872;5.306;2023-01-13T03:09:10;1.67;;;0.80;;
27187;SDS011;14708;50.872;5.306;2023-01-13T03:12:05;1.77;;;0.90;;
27187;SDS011;14708;50.872;5.306;2023-01-13T03:14:51;1.23;;;0.90;;
27187;SDS011;14708;50.872;5.306;2023-01-13T03:17:26;2.33;;;0.98;;
27187;SDS011;14708;50.872;5.306;2023-01-13T03:20:05;3.25;;;1.10;;
27187;SDS011;14708;50.872;5.306;2023-01-13T03:22:40;1.65;;;1.08;;
27187;SDS011;14708;50.872;5.306;2023-01-13T03:25:17;0.82;;;0.60;;
27187;SDS011;14708;50.872;5.306;2023-01-13T03:28:09;1.55;;;0.98;;
27187;SDS011;14708;50.872;5.306;2023-01-13T03:30:48;1.80;;;0.77;;
27187;SDS011;14708;50.872;5.306;2023-01-13T03:33:25;1.20;;;0.80;;
27187;SDS011;14708;50.872;5.306;2023-01-13T03:35:56;1.00;;;0.90;;
27187;SDS011;14708;50.872;5.306;2023-01-13T03:38:39;1.98;;;1.10;;
27187;SDS011;14708;50.872;5.306;2023-01-13T03:44:04;1.67;;;1.05;;
27187;SDS011;14708;50.872;5.306;2023-01-13T03:53:01;1.70;;;1.00;;
27187;SDS011;14708;50.872;5.306;2023-01-13T03:55:34;1.42;;;0.90;;
27187;SDS011;14708;50.872;5.306;2023-01-13T03:58:14;1.30;;;0.80;;
27187;SDS011;14708;50.872;5.306;2023-01-13T04:03:41;1.02;;;0.80;;
27187;SDS011;14708;50.872;5.306;2023-01-13T04:08:54;1.58;;;1.02;;
27187;SDS011;14708;50.872;5.306;2023-01-13T04:11:28;1.70;;;1.02;;
27187;SDS011;14708;50.872;5.306;2023-01-13T04:14:18;2.50;;;1.10;;
27187;SDS011;14708;50.872;5.306;2023-01-13T04:16:45;0.93;;;0.80;;
27187;SDS011;14708;50.872;5.306;2023-01-13T04:19:12;1.08;;;0.77;;
27187;SDS011;14708;50.872;5.306;2023-01-13T04:21:38;1.30;;;0.98;;
27187;SDS011;14708;50.872;5.306;2023-01-13T04:24:03;1.88;;;1.05;;
27187;SDS011;14708;50.872;5.306;2023-01-13T04:26:29;1.85;;;0.80;;
27187;SDS011;14708;50.872;5.306;2023-01-13T04:28:55;1.50;;;0.88;;
27187;SDS011;14708;50.872;5.306;2023-01-13T04:31:21;1.77;;;0.88;;
27187;SDS011;14708;50.872;5.306;2023-01-13T04:33:47;2.25;;;1.33;;
27187;SDS011;14708;50.872;5.306;2023-01-13T04:36:12;1.48;;;0.82;;
27187;SDS011;14708;50.872;5.306;2023-01-13T04:38:39;1.13;;;0.70;;
27187;SDS011;14708;50.872;5.306;2023-01-13T04:41:05;1.23;;;0.70;;
27187;SDS011;14708;50.872;5.306;2023-01-13T04:43:31;1.08;;;0.75;;
27187;SDS011;14708;50.872;5.306;2023-01-13T04:45:56;2.13;;;0.88;;
27187;SDS011;14708;50.872;5.306;2023-01-13T04:48:22;1.63;;;0.88;;
27187;SDS011;14708;50.872;5.306;2023-01-13T04:51:09;2.38;;;1.15;;
27187;SDS011;14708;50.872;5.306;2023-01-13T04:53:33;1.40;;;0.82;;
27187;SDS011;14708;50.872;5.306;2023-01-13T04:55:59;1.88;;;0.80;;
27187;SDS011;14708;50.872;5.306;2023-01-13T04:58:25;2.20;;;1.15;;
27187;SDS011;14708;50.872;5.306;2023-01-13T05:00:51;1.95;;;0.85;;
27187;SDS011;14708;50.872;5.306;2023-01-13T05:03:16;2.10;;;0.90;;
27187;SDS011;14708;50.872;5.306;2023-01-13T05:05:42;1.75;;;0.85;;
27187;SDS011;14708;50.872;5.306;2023-01-13T05:08:08;1.13;;;0.80;;
27187;SDS011;14708;50.872;5.306;2023-01-13T05:10:34;2.55;;;1.10;;
27187;SDS011;14708;50.872;5.306;2023-01-13T05:13:00;1.40;;;0.90;;
27187;SDS011;14708;50.872;5.306;2023-01-13T05:15:53;1.77;;;0.80;;
27187;SDS011;14708;50.872;5.306;2023-01-13T05:18:37;1.58;;;0.88;;
27187;SDS011;14708;50.872;5.306;2023-01-13T05:21:03;1.73;;;1.00;;
27187;SDS011;14708;50.872;5.306;2023-01-13T05:23:49;0.85;;;0.75;;
27187;SDS011;14708;50.872;5.306;2023-01-13T05:26:33;2.38;;;1.00;;
27187;SDS011;14708;50.872;5.306;2023-01-13T05:28:59;1.45;;;0.88;;
27187;SDS011;14708;50.872;5.306;2023-01-13T05:31:27;1.70;;;1.00;;
27187;SDS011;14708;50.872;5.306;2023-01-13T05:33:53;2.03;;;1.10;;
27187;SDS011;14708;50.872;5.306;2023-01-13T05:36:19;1.17;;;0.70;;
27187;SDS011;14708;50.872;5.306;2023-01-13T05:38:44;1.48;;;0.70;;
27187;SDS011;14708;50.872;5.306;2023-01-13T05:41:10;1.58;;;1.00;;
27187;SDS011;14708;50.872;5.306;2023-01-13T05:43:54;1.90;;;0.80;;
27187;SDS011;14708;50.872;5.306;2023-01-13T05:46:19;1.77;;;0.80;;
27187;SDS011;14708;50.872;5.306;2023-01-13T05:48:45;2.15;;;1.15;;
27187;SDS011;14708;50.872;5.306;2023-01-13T05:51:12;1.30;;;0.98;;
27187;SDS011;14708;50.872;5.306;2023-01-13T05:53:37;1.58;;;0.80;;
27187;SDS011;14708;50.872;5.306;2023-01-13T05:56:27;1.43;;;0.70;;
27187;SDS011;14708;50.872;5.306;2023-01-13T05:58:52;1.45;;;0.80;;
27187;SDS011;14708;50.872;5.306;2023-01-13T06:01:18;1.48;;;0.82;;
27187;SDS011;14708;50.872;5.306;2023-01-13T06:03:43;1.98;;;1.00;;
27187;SDS011;14708;50.872;5.306;2023-01-13T06:06:09;1.35;;;0.90;;
27187;SDS011;14708;50.872;5.306;2023-01-13T06:08:35;1.08;;;0.60;;
27187;SDS011;14708;50.872;5.306;2023-01-13T06:11:00;1.00;;;0.70;;
27187;SDS011;14708;50.872;5.306;2023-01-13T06:13:26;1.20;;;0.70;;
27187;SDS011;14708;50.872;5.306;2023-01-13T06:15:55;2.03;;;0.98;;
27187;SDS011;14708;50.872;5.306;2023-01-13T06:18:22;1.25;;;0.88;;
27187;SDS011;14708;50.872;5.306;2023-01-13T06:20:48;2.35;;;0.80;;
27187;SDS011;14708;50.872;5.306;2023-01-13T06:23:13;1.35;;;0.77;;
27187;SDS011;14708;50.872;5.306;2023-01-13T06:28:41;1.40;;;0.80;;
27187;SDS011;14708;50.872;5.306;2023-01-13T06:31:07;1.20;;;0.63;;
27187;SDS011;14708;50.872;5.306;2023-01-13T06:33:37;1.63;;;0.70;;
27187;SDS011;14708;50.872;5.306;2023-01-13T06:36:14;1.67;;;0.93;;
27187;SDS011;14708;50.872;5.306;2023-01-13T06:38:46;1.65;;;0.85;;
27187;SDS011;14708;50.872;5.306;2023-01-13T06:41:25;2.65;;;1.08;;
27187;SDS011;14708;50.872;5.306;2023-01-13T06:44:12;2.17;;;1.00;;
27187;SDS011;14708;50.872;5.306;2023-01-13T06:46:38;1.27;;;0.73;;
27187;SDS011;14708;50.872;5.306;2023-01-13T06:49:03;4.13;;;0.80;;
27187;SDS011;14708;50.872;5.306;2023-01-13T06:51:29;2.70;;;1.05;;
27187;SDS011;14708;50.872;5.306;2023-01-13T06:53:55;1.15;;;0.90;;
27187;SDS011;14708;50.872;5.306;2023-01-13T06:56:20;2.70;;;1.05;;
27187;SDS011;14708;50.872;5.306;2023-01-13T06:58:46;1.60;;;1.13;;
27187;SDS011;14708;50.872;5.306;2023-01-13T07:01:12;0.98;;;0.70;;
27187;SDS011;14708;50.872;5.306;2023-01-13T07:03:38;1.80;;;0.80;;
27187;SDS011;14708;50.872;5.306;2023-01-13T07:06:04;3.08;;;0.80;;
27187;SDS011;14708;50.872;5.306;2023-01-13T07:08:51;1.92;;;0.80;;
27187;SDS011;14708;50.872;5.306;2023-01-13T07:11:16;1.17;;;0.73;;
27187;SDS011;14708;50.872;5.306;2023-01-13T07:13:42;1.73;;;0.80;;
27187;SDS011;14708;50.872;5.306;2023-01-13T07:16:26;2.97;;;0.80;;
27187;SDS011;14708;50.872;5.306;2023-01-13T07:18:52;1.48;;;0.93;;
27187;SDS011;14708;50.872;5.306;2023-01-13T07:21:18;1.85;;;1.02;;
27187;SDS011;14708;50.872;5.306;2023-01-13T07:23:44;1.15;;;0.93;;
27187;SDS011;14708;50.872;5.306;2023-01-13T07:26:11;2.67;;;1.13;;
27187;SDS011;14708;50.872;5.306;2023-01-13T07:28:37;2.97;;;0.95;;
27187;SDS011;14708;50.872;5.306;2023-01-13T07:31:04;4.97;;;1.30;;
27187;SDS011;14708;50.872;5.306;2023-01-13T07:33:43;3.85;;;0.98;;
27187;SDS011;14708;50.872;5.306;2023-01-13T07:36:09;4.47;;;1.20;;
27187;SDS011;14708;50.872;5.306;2023-01-13T07:38:35;3.70;;;1.13;;
27187;SDS011;14708;50.872;5.306;2023-01-13T07:41:02;5.88;;;1.25;;
27187;SDS011;14708;50.872;5.306;2023-01-13T07:43:50;3.33;;;1.10;;
27187;SDS011;14708;50.872;5.306;2023-01-13T07:46:16;2.58;;;1.25;;
27187;SDS011;14708;50.872;5.306;2023-01-13T07:48:43;4.30;;;1.40;;
27187;SDS011;14708;50.872;5.306;2023-01-13T07:51:10;5.65;;;1.95;;
27187;SDS011;14708;50.872;5.306;2023-01-13T07:53:37;4.53;;;1.50;;
27187;SDS011;14708;50.872;5.306;2023-01-13T07:56:03;4.65;;;1.38;;
27187;SDS011;14708;50.872;5.306;2023-01-13T07:58:38;4.95;;;1.33;;
27187;SDS011;14708;50.872;5.306;2023-01-13T08:01:11;4.57;;;1.58;;
27187;SDS011;14708;50.872;5.306;2023-01-13T08:03:38;7.93;;;2.97;;
27187;SDS011;14708;50.872;5.306;2023-01-13T08:06:04;6.88;;;2.00;;
27187;SDS011;14708;50.872;5.306;2023-01-13T08:08:31;5.32;;;1.55;;
27187;SDS011;14708;50.872;5.306;2023-01-13T08:11:00;5.93;;;1.77;;
27187;SDS011;14708;50.872;5.306;2023-01-13T08:13:27;4.28;;;1.48;;
27187;SDS011;14708;50.872;5.306;2023-01-13T08:15:53;8.52;;;2.38;;
27187;SDS011;14708;50.872;5.306;2023-01-13T08:18:31;7.32;;;2.03;;
27187;SDS011;14708;50.872;5.306;2023-01-13T08:21:00;4.10;;;1.67;;
27187;SDS011;14708;50.872;5.306;2023-01-13T08:23:37;6.25;;;2.05;;
27187;SDS011;14708;50.872;5.306;2023-01-13T08:26:04;5.70;;;1.98;;
27187;SDS011;14708;50.872;5.306;2023-01-13T08:28:31;12.50;;;3.72;;
27187;SDS011;14708;50.872;5.306;2023-01-13T08:31:01;12.20;;;2.88;;
27187;SDS011;14708;50.872;5.306;2023-01-13T08:33:28;5.40;;;2.20;;
27187;SDS011;14708;50.872;5.306;2023-01-13T08:35:54;9.82;;;2.58;;
27187;SDS011;14708;50.872;5.306;2023-01-13T08:38:20;10.80;;;2.58;;
27187;SDS011;14708;50.872;5.306;2023-01-13T08:40:46;5.13;;;2.33;;
27187;SDS011;14708;50.872;5.306;2023-01-13T08:43:12;6.80;;;2.10;;
27187;SDS011;14708;50.872;5.306;2023-01-13T08:45:38;9.73;;;2.85;;
27187;SDS011;14708;50.872;5.306;2023-01-13T08:48:03;9.82;;;3.13;;
27187;SDS011;14708;50.872;5.306;2023-01-13T08:50:29;10.40;;;2.75;;
27187;SDS011;14708;50.872;5.306;2023-01-13T08:52:55;9.90;;;2.42;;
27187;SDS011;14708;50.872;5.306;2023-01-13T08:55:21;7.72;;;2.45;;
27187;SDS011;14708;50.872;5.306;2023-01-13T08:57:47;11.50;;;3.30;;
27187;SDS011;14708;50.872;5.306;2023-01-13T09:00:12;9.15;;;2.55;;
27187;SDS011;14708;50.872;5.306;2023-01-13T09:02:38;10.45;;;2.53;;
27187;SDS011;14708;50.872;5.306;2023-01-13T09:05:05;12.82;;;3.22;;
27187;SDS011;14708;50.872;5.306;2023-01-13T09:07:32;10.60;;;3.35;;
27187;SDS011;14708;50.872;5.306;2023-01-13T09:09:59;8.50;;;2.83;;
27187;SDS011;14708;50.872;5.306;2023-01-13T09:12:25;6.45;;;2.53;;
27187;SDS011;14708;50.872;5.306;2023-01-13T09:15:10;12.82;;;3.30;;
27187;SDS011;14708;50.872;5.306;2023-01-13T09:17:36;8.32;;;2.88;;
27187;SDS011;14708;50.872;5.306;2023-01-13T09:20:02;10.30;;;2.85;;
27187;SDS011;14708;50.872;5.306;2023-01-13T09:22:28;11.38;;;3.00;;
27187;SDS011;14708;50.872;5.306;2023-01-13T09:24:54;5.93;;;2.45;;
27187;SDS011;14708;50.872;5.306;2023-01-13T09:27:20;10.55;;;2.97;;
27187;SDS011;14708;50.872;5.306;2023-01-13T09:29:46;7.55;;;2.53;;
27187;SDS011;14708;50.872;5.306;2023-01-13T09:32:12;11.05;;;2.85;;
27187;SDS011;14708;50.872;5.306;2023-01-13T09:34:38;7.68;;;2.95;;
27187;SDS011;14708;50.872;5.306;2023-01-13T09:37:23;8.80;;;2.67;;
27187;SDS011;14708;50.872;5.306;2023-01-13T09:40:16;8.57;;;2.85;;
27187;SDS011;14708;50.872;5.306;2023-01-13T09:42:52;14.20;;;3.65;;
27187;SDS011;14708;50.872;5.306;2023-01-13T09:46:01;16.23;;;4.15;;
27187;SDS011;14708;50.872;5.306;2023-01-13T09:49:00;13.13;;;3.83;;
27187;SDS011;14708;50.872;5.306;2023-01-13T09:51:35;16.05;;;4.20;;
27187;SDS011;14708;50.872;5.306;2023-01-13T09:56:37;13.85;;;3.70;;
27187;SDS011;14708;50.872;5.306;2023-01-13T09:59:03;13.05;;;3.63;;
27187;SDS011;14708;50.872;5.306;2023-01-13T10:01:34;13.40;;;3.28;;
27187;SDS011;14708;50.872;5.306;2023-01-13T10:04:23;11.57;;;3.58;;
27187;SDS011;14708;50.872;5.306;2023-01-13T10:06:57;12.90;;;3.28;;
27187;SDS011;14708;50.872;5.306;2023-01-13T10:09:45;10.05;;;2.97;;
27187;SDS011;14708;50.872;5.306;2023-01-13T10:12:15;9.77;;;3.22;;
27187;SDS011;14708;50.872;5.306;2023-01-13T10:15:08;10.70;;;3.22;;
27187;SDS011;14708;50.872;5.306;2023-01-13T10:25:44;11.38;;;3.03;;
27187;SDS011;14708;50.872;5.306;2023-01-13T10:28:20;10.70;;;3.33;;
27187;SDS011;14708;50.872;5.306;2023-01-13T10:30:49;11.43;;;3.60;;
27187;SDS011;14708;50.872;5.306;2023-01-13T10:33:15;10.20;;;3.67;;
27187;SDS011;14708;50.872;5.306;2023-01-13T10:40:47;21.63;;;6.82;;
27187;SDS011;14708;50.872;5.306;2023-01-13T10:43:15;19.02;;;6.57;;
27187;SDS011;14708;50.872;5.306;2023-01-13T10:48:42;11.57;;;4.95;;
27187;SDS011;14708;50.872;5.306;2023-01-13T10:53:50;18.25;;;6.15;;
27187;SDS011;14708;50.872;5.306;2023-01-13T10:56:17;12.30;;;4.95;;
27187;SDS011;14708;50.872;5.306;2023-01-13T10:58:46;16.88;;;5.45;;
27187;SDS011;14708;50.872;5.306;2023-01-13T11:01:22;16.25;;;5.65;;
27187;SDS011;14708;50.872;5.306;2023-01-13T11:03:50;15.65;;;5.72;;
27187;SDS011;14708;50.872;5.306;2023-01-13T11:06:24;21.10;;;9.15;;
27187;SDS011;14708;50.872;5.306;2023-01-13T11:08:53;19.52;;;9.50;;
27187;SDS011;14708;50.872;5.306;2023-01-13T11:13:57;38.03;;;21.45;;
27187;SDS011;14708;50.872;5.306;2023-01-13T11:16:48;37.08;;;20.08;;
27187;SDS011;14708;50.872;5.306;2023-01-13T11:19:20;35.92;;;20.30;;
27187;SDS011;14708;50.872;5.306;2023-01-13T11:21:54;36.30;;;21.25;;
27187;SDS011;14708;50.872;5.306;2023-01-13T11:27:19;39.33;;;20.60;;
27187;SDS011;14708;50.872;5.306;2023-01-13T11:38:44;35.75;;;19.75;;
27187;SDS011;14708;50.872;5.306;2023-01-13T11:41:16;37.08;;;19.75;;
27187;SDS011;14708;50.872;5.306;2023-01-13T11:43:54;37.05;;;20.77;;
27187;SDS011;14708;50.872;5.306;2023-01-13T11:46:43;35.78;;;19.75;;
27187;SDS011;14708;50.872;5.306;2023-01-13T11:49:22;35.47;;;19.67;;
27187;SDS011;14708;50.872;5.306;2023-01-13T11:52:03;33.15;;;19.17;;
27187;SDS011;14708;50.872;5.306;2023-01-13T11:54:50;33.15;;;17.83;;
27187;SDS011;14708;50.872;5.306;2023-01-13T11:57:25;33.55;;;19.13;;
27187;SDS011;14708;50.872;5.306;2023-01-13T12:00:30;34.03;;;19.70;;
27187;SDS011;14708;50.872;5.306;2023-01-13T12:06:02;34.80;;;18.02;;
27187;SDS011;14708;50.872;5.306;2023-01-13T12:08:58;33.38;;;19.10;;
27187;SDS011;14708;50.872;5.306;2023-01-13T12:20:19;32.42;;;17.65;;
27187;SDS011;14708;50.872;5.306;2023-01-13T12:23:17;32.83;;;17.50;;
27187;SDS011;14708;50.872;5.306;2023-01-13T12:26:06;27.95;;;17.35;;
27187;SDS011;14708;50.872;5.306;2023-01-13T12:31:10;29.35;;;17.10;;
27187;SDS011;14708;50.872;5.306;2023-01-13T12:41:45;25.58;;;12.25;;
27187;SDS011;14708;50.872;5.306;2023-01-13T12:44:34;20.05;;;11.40;;
27187;SDS011;14708;50.872;5.306;2023-01-13T12:47:00;23.20;;;12.60;;
27187;SDS011;14708;50.872;5.306;2023-01-13T12:56:54;21.92;;;13.50;;
27187;SDS011;14708;50.872;5.306;2023-01-13T13:01:49;22.90;;;12.50;;
27187;SDS011;14708;50.872;5.306;2023-01-13T13:07:16;22.02;;;12.43;;
27187;SDS011;14708;50.872;5.306;2023-01-13T13:15:27;20.90;;;11.93;;
27187;SDS011;14708;50.872;5.306;2023-01-13T13:28:36;18.95;;;10.35;;
27187;SDS011;14708;50.872;5.306;2023-01-13T13:31:07;17.42;;;10.77;;
27187;SDS011;14708;50.872;5.306;2023-01-13T13:36:52;15.95;;;10.15;;
27187;SDS011;14708;50.872;5.306;2023-01-13T13:39:29;23.15;;;10.65;;
27187;SDS011;14708;50.872;5.306;2023-01-13T13:42:21;22.13;;;10.52;;
27187;SDS011;14708;50.872;5.306;2023-01-13T13:45:19;25.02;;;11.18;;
27187;SDS011;14708;50.872;5.306;2023-01-13T13:48:22;22.13;;;11.55;;
27187;SDS011;14708;50.872;5.306;2023-01-13T13:50:51;22.50;;;10.50;;
27187;SDS011;14708;50.872;5.306;2023-01-13T13:53:25;20.92;;;10.75;;
27187;SDS011;14708;50.872;5.306;2023-01-13T13:55:58;20.73;;;11.43;;
27187;SDS011;14708;50.872;5.306;2023-01-13T13:58:26;18.27;;;9.43;;
27187;SDS011;14708;50.872;5.306;2023-01-13T14:00:53;22.48;;;9.73;;
27187;SDS011;14708;50.872;5.306;2023-01-13T14:05:58;18.80;;;9.80;;
27187;SDS011;14708;50.872;5.306;2023-01-13T14:08:34;17.30;;;10.10;;
27187;SDS011;14708;50.872;5.306;2023-01-13T14:11:03;20.30;;;10.52;;
27187;SDS011;14708;50.872;5.306;2023-01-13T14:16:36;19.17;;;9.73;;
27187;SDS011;14708;50.872;5.306;2023-01-13T14:19:03;16.95;;;9.15;;
27187;SDS011;14708;50.872;5.306;2023-01-13T14:21:29;17.45;;;10.27;;
27187;SDS011;14708;50.872;5.306;2023-01-13T14:23:57;19.55;;;10.05;;
27187;SDS011;14708;50.872;5.306;2023-01-13T14:26:32;18.00;;;9.57;;
27187;SDS011;14708;50.872;5.306;2023-01-13T14:29:06;15.70;;;9.48;;
27187;SDS011;14708;50.872;5.306;2023-01-13T14:31:39;16.40;;;9.60;;
27187;SDS011;14708;50.872;5.306;2023-01-13T14:34:06;15.93;;;8.88;;
27187;SDS011;14708;50.872;5.306;2023-01-13T14:41:30;13.20;;;7.30;;
27187;SDS011;14708;50.872;5.306;2023-01-13T14:44:15;14.57;;;7.40;;
27187;SDS011;14708;50.872;5.306;2023-01-13T14:46:52;11.77;;;6.75;;
27187;SDS011;14708;50.872;5.306;2023-01-13T14:49:36;9.82;;;5.30;;
27187;SDS011;14708;50.872;5.306;2023-01-13T14:54:43;11.10;;;5.47;;
27187;SDS011;14708;50.872;5.306;2023-01-13T14:57:15;10.07;;;5.35;;
27187;SDS011;14708;50.872;5.306;2023-01-13T15:04:56;10.55;;;5.95;;
27187;SDS011;14708;50.872;5.306;2023-01-13T15:09:54;13.65;;;6.28;;
27187;SDS011;14708;50.872;5.306;2023-01-13T15:15:00;11.70;;;5.65;;
27187;SDS011;14708;50.872;5.306;2023-01-13T15:17:27;13.63;;;6.40;;
27187;SDS011;14708;50.872;5.306;2023-01-13T15:19:53;12.82;;;5.82;;
27187;SDS011;14708;50.872;5.306;2023-01-13T15:22:18;12.75;;;6.47;;
27187;SDS011;14708;50.872;5.306;2023-01-13T15:24:44;14.52;;;6.45;;
27187;SDS011;14708;50.872;5.306;2023-01-13T15:27:15;11.20;;;6.00;;
27187;SDS011;14708;50.872;5.306;2023-01-13T15:29:43;11.30;;;5.90;;
27187;SDS011;14708;50.872;5.306;2023-01-13T15:32:13;13.00;;;6.20;;
27187;SDS011;14708;50.872;5.306;2023-01-13T15:34:43;11.82;;;5.80;;
27187;SDS011;14708;50.872;5.306;2023-01-13T15:37:09;20.52;;;6.60;;
27187;SDS011;14708;50.872;5.306;2023-01-13T15:39:35;11.98;;;5.28;;
27187;SDS011;14708;50.872;5.306;2023-01-13T15:42:00;10.02;;;5.28;;
27187;SDS011;14708;50.872;5.306;2023-01-13T15:44:45;13.30;;;5.18;;
27187;SDS011;14708;50.872;5.306;2023-01-13T15:47:29;11.07;;;5.60;;
27187;SDS011;14708;50.872;5.306;2023-01-13T15:49:54;8.68;;;4.82;;
27187;SDS011;14708;50.872;5.306;2023-01-13T15:52:24;13.48;;;5.75;;
27187;SDS011;14708;50.872;5.306;2023-01-13T15:54:51;14.18;;;5.10;;
27187;SDS011;14708;50.872;5.306;2023-01-13T15:57:21;13.50;;;5.07;;
27187;SDS011;14708;50.872;5.306;2023-01-13T15:59:47;7.32;;;4.38;;
27187;SDS011;14708;50.872;5.306;2023-01-13T16:02:13;14.85;;;5.28;;
27187;SDS011;14708;50.872;5.306;2023-01-13T16:04:42;10.48;;;4.88;;
27187;SDS011;14708;50.872;5.306;2023-01-13T16:07:15;12.52;;;5.00;;
27187;SDS011;14708;50.872;5.306;2023-01-13T16:09:42;10.65;;;5.03;;
27187;SDS011;14708;50.872;5.306;2023-01-13T16:12:09;11.52;;;4.65;;
27187;SDS011;14708;50.872;5.306;2023-01-13T16:14:37;15.02;;;5.57;;
27187;SDS011;14708;50.872;5.306;2023-01-13T16:17:14;10.93;;;5.07;;
27187;SDS011;14708;50.872;5.306;2023-01-13T16:19:41;14.25;;;5.22;;
27187;SDS011;14708;50.872;5.306;2023-01-13T16:22:08;16.27;;;5.20;;
27187;SDS011;14708;50.872;5.306;2023-01-13T16:24:35;17.80;;;5.63;;
27187;SDS011;14708;50.872;5.306;2023-01-13T16:27:00;14.00;;;4.47;;
27187;SDS011;14708;50.872;5.306;2023-01-13T16:29:26;17.15;;;5.20;;
27187;SDS011;14708;50.872;5.306;2023-01-13T16:31:52;13.13;;;4.75;;
27187;SDS011;14708;50.872;5.306;2023-01-13T16:34:17;11.25;;;5.20;;
27187;SDS011;14708;50.872;5.306;2023-01-13T16:36:43;15.23;;;4.47;;
27187;SDS011;14708;50.872;5.306;2023-01-13T16:39:20;13.07;;;4.28;;
27187;SDS011;14708;50.872;5.306;2023-01-13T16:41:46;13.98;;;4.30;;
27187;SDS011;14708;50.872;5.306;2023-01-13T16:44:12;15.45;;;5.05;;
27187;SDS011;14708;50.872;5.306;2023-01-13T16:46:38;13.40;;;4.90;;
27187;SDS011;14708;50.872;5.306;2023-01-13T16:49:04;14.52;;;5.55;;
27187;SDS011;14708;50.872;5.306;2023-01-13T16:51:31;13.82;;;4.65;;
27187;SDS011;14708;50.872;5.306;2023-01-13T16:53:57;14.70;;;4.38;;
27187;SDS011;14708;50.872;5.306;2023-01-13T16:56:30;12.88;;;4.80;;
27187;SDS011;14708;50.872;5.306;2023-01-13T16:58:58;10.30;;;4.75;;
27187;SDS011;14708;50.872;5.306;2023-01-13T17:01:28;12.50;;;4.18;;
27187;SDS011;14708;50.872;5.306;2023-01-13T17:03:56;13.32;;;3.95;;
27187;SDS011;14708;50.872;5.306;2023-01-13T17:06:23;10.13;;;4.13;;
27187;SDS011;14708;50.872;5.306;2023-01-13T17:08:53;10.65;;;4.50;;
27187;SDS011;14708;50.872;5.306;2023-01-13T17:11:23;9.50;;;3.60;;
27187;SDS011;14708;50.872;5.306;2023-01-13T17:13:49;9.52;;;3.78;;
27187;SDS011;14708;50.872;5.306;2023-01-13T17:16:15;11.93;;;4.15;;
27187;SDS011;14708;50.872;5.306;2023-01-13T17:18:43;8.55;;;3.67;;
27187;SDS011;14708;50.872;5.306;2023-01-13T17:21:09;10.90;;;3.70;;
27187;SDS011;14708;50.872;5.306;2023-01-13T17:23:34;12.35;;;4.20;;
27187;SDS011;14708;50.872;5.306;2023-01-13T17:26:00;10.75;;;3.70;;
27187;SDS011;14708;50.872;5.306;2023-01-13T17:28:26;9.45;;;4.15;;
27187;SDS011;14708;50.872;5.306;2023-01-13T17:30:51;9.82;;;3.78;;
27187;SDS011;14708;50.872;5.306;2023-01-13T17:33:17;7.88;;;3.90;;